Terminal Aerodrome Forecast
Issued by NWS

Current Version | Previous Version | Text Only | Print | Product List | Glossary On
Versions: 1 2 3 4 5 6 7 8 9 10 11 12 13 14 15 16
088
FTUS45 KABQ 302334
TAFSAF
TAF
KSAF 302334Z 0100/0124 VRB06KT P6SM VCSH SCT040 BKN070
     FM010300 12022G32KT P6SM VCSH BKN040
     FM010500 12025G35KT P6SM VCSH BKN025 OVC040
      TEMPO 0108/0112 OVC015
     FM011200 15020G30KT P6SM VCSH OVC015
     FM011500 14015G25KT P6SM VCSH BKN020 BKN040
     FM012000 13018G28KT P6SM VCSH BKN040 BKN070=

USA.gov is the U.S. government's official web portal to all federal, state and local government web resources and services.